ASA655 KSEA-KSFO
Flight info
| Callsign | ASA655 |
|---|---|
| Flight time | 1h 39m |
| Altitude | 37000 |
| Route | HAROB6 ERAVE Q1 ETCHY MLBEC BDEGA4 |
| Aircraft | B738/M-SDE2E3FGHIRWXY/LB1 |
Departure
| Time | 2026-05-05 21:26 |
|---|---|
| Airport | Seattle–Tacoma International Airport (KSEA) |
Arrival
| Time | 2026-05-05 23:05 |
|---|---|
| Airport | San Francisco International Airport (KSFO) |
| Time | Latitude | Longitude | Altitude | Speed | Heading |
|---|---|---|---|---|---|
| 2026-05-05 21:05 | 47.44774 | -122.30100 | 408 ft | 0 kts | 310° |
| 2026-05-05 21:17 | 47.44752 | -122.30062 | 402 ft | 6 kts | 310° |
| 2026-05-05 21:17 | 47.44742 | -122.30042 | 402 ft | 2 kts | 282° |
| 2026-05-05 21:17 | 47.44743 | -122.30025 | 404 ft | 2 kts | 233° |
| 2026-05-05 21:17 | 47.44750 | -122.30013 | 401 ft | 2 kts | 214° |
| 2026-05-05 21:18 | 47.44759 | -122.30005 | 407 ft | 0 kts | 208° |
| 2026-05-05 21:20 | 47.44750 | -122.30012 | 401 ft | 5 kts | 208° |
| 2026-05-05 21:20 | 47.44698 | -122.30080 | 405 ft | 14 kts | 234° |
| 2026-05-05 21:20 | 47.44684 | -122.30229 | 402 ft | 17 kts | 292° |
| 2026-05-05 21:21 | 47.44757 | -122.30368 | 406 ft | 17 kts | 310° |
| 2026-05-05 21:21 | 47.44802 | -122.30464 | 407 ft | 17 kts | 287° |
| 2026-05-05 21:21 | 47.44819 | -122.30613 | 403 ft | 13 kts | 313° |
| 2026-05-05 21:21 | 47.44907 | -122.30628 | 405 ft | 13 kts | 1° |
| 2026-05-05 21:22 | 47.44995 | -122.30627 | 410 ft | 13 kts | 0° |
| 2026-05-05 21:22 | 47.45089 | -122.30626 | 413 ft | 15 kts | 0° |
| 2026-05-05 21:22 | 47.45202 | -122.30626 | 413 ft | 17 kts | 0° |
| 2026-05-05 21:22 | 47.45327 | -122.30624 | 415 ft | 18 kts | 0° |
| 2026-05-05 21:23 | 47.45458 | -122.30623 | 424 ft | 19 kts | 0° |
| 2026-05-05 21:23 | 47.45602 | -122.30622 | 425 ft | 22 kts | 0° |
| 2026-05-05 21:23 | 47.45766 | -122.30621 | 436 ft | 26 kts | 0° |
| 2026-05-05 21:23 | 47.45944 | -122.30619 | 426 ft | 25 kts | 0° |
| 2026-05-05 21:24 | 47.46115 | -122.30617 | 432 ft | 25 kts | 0° |
| 2026-05-05 21:24 | 47.46295 | -122.30616 | 434 ft | 23 kts | 0° |
| 2026-05-05 21:24 | 47.46360 | -122.30629 | 434 ft | 7 kts | 323° |
| 2026-05-05 21:24 | 47.46376 | -122.30693 | 441 ft | 7 kts | 266° |
| 2026-05-05 21:25 | 47.46346 | -122.30763 | 437 ft | 10 kts | 215° |
| 2026-05-05 21:25 | 47.46280 | -122.30778 | 433 ft | 4 kts | 179° |
| 2026-05-05 21:25 | 47.46277 | -122.30778 | 433 ft | 0 kts | 179° |
| 2026-05-05 21:25 | 47.46252 | -122.30778 | 433 ft | 19 kts | 180° |
| 2026-05-05 21:26 | 47.45855 | -122.30782 | 424 ft | 94 kts | 180° |
| 2026-05-05 21:26 | 47.44979 | -122.30789 | 410 ft | 156 kts | 181° |
| 2026-05-05 21:26 | 47.43781 | -122.30795 | 834 ft | 178 kts | 181° |
| 2026-05-05 21:26 | 47.42560 | -122.30790 | 1877 ft | 168 kts | 182° |
| 2026-05-05 21:27 | 47.41385 | -122.30812 | 2708 ft | 175 kts | 183° |
| 2026-05-05 21:27 | 47.40055 | -122.30848 | 3010 ft | 207 kts | 182° |
| 2026-05-05 21:27 | 47.38527 | -122.30893 | 3232 ft | 232 kts | 182° |
| 2026-05-05 21:27 | 47.36848 | -122.30958 | 3530 ft | 254 kts | 182° |
| 2026-05-05 21:28 | 47.35020 | -122.31039 | 4033 ft | 270 kts | 185° |
| 2026-05-05 21:28 | 47.33216 | -122.31835 | 4789 ft | 276 kts | 213° |
| 2026-05-05 21:28 | 47.31908 | -122.33860 | 5592 ft | 276 kts | 245° |
| 2026-05-05 21:28 | 47.31375 | -122.36547 | 6481 ft | 274 kts | 262° |
| 2026-05-05 21:29 | 47.31084 | -122.39339 | 7273 ft | 278 kts | 263° |
| 2026-05-05 21:29 | 47.30805 | -122.42136 | 8056 ft | 282 kts | 263° |
| 2026-05-05 21:29 | 47.30608 | -122.45058 | 8863 ft | 284 kts | 271° |
| 2026-05-05 21:29 | 47.30664 | -122.47983 | 9667 ft | 287 kts | 275° |
| 2026-05-05 21:30 | 47.30784 | -122.50946 | 10364 ft | 295 kts | 275° |
| 2026-05-05 21:30 | 47.30912 | -122.54040 | 10561 ft | 319 kts | 275° |
| 2026-05-05 21:30 | 47.31037 | -122.57420 | 10777 ft | 341 kts | 275° |
| 2026-05-05 21:30 | 47.31151 | -122.60962 | 11300 ft | 350 kts | 274° |
| 2026-05-05 21:31 | 47.31254 | -122.64569 | 12001 ft | 354 kts | 274° |
| 2026-05-05 21:31 | 47.31354 | -122.68211 | 12726 ft | 357 kts | 274° |
| 2026-05-05 21:31 | 47.31451 | -122.71884 | 13421 ft | 361 kts | 274° |
| 2026-05-05 21:31 | 47.31533 | -122.75611 | 14055 ft | 367 kts | 271° |
| 2026-05-05 21:32 | 47.31061 | -122.79334 | 14625 ft | 376 kts | 252° |
| 2026-05-05 21:32 | 47.30092 | -122.82921 | 15286 ft | 378 kts | 250° |
| 2026-05-05 21:32 | 47.29084 | -122.86529 | 15857 ft | 383 kts | 250° |
| 2026-05-05 21:32 | 47.28073 | -122.90182 | 16422 ft | 388 kts | 250° |
| 2026-05-05 21:33 | 47.27068 | -122.93887 | 17017 ft | 391 kts | 251° |
| 2026-05-05 21:33 | 47.26063 | -122.97628 | 17615 ft | 395 kts | 251° |
| 2026-05-05 21:33 | 47.25041 | -123.01403 | 18178 ft | 400 kts | 248° |
| 2026-05-05 21:33 | 47.23533 | -123.04878 | 18659 ft | 410 kts | 228° |
| 2026-05-05 21:34 | 47.21340 | -123.07577 | 19217 ft | 413 kts | 218° |
| 2026-05-05 21:34 | 47.19012 | -123.10079 | 19766 ft | 416 kts | 217° |
| 2026-05-05 21:34 | 47.16653 | -123.12572 | 20265 ft | 420 kts | 217° |
| 2026-05-05 21:34 | 47.14277 | -123.15091 | 20776 ft | 423 kts | 217° |
| 2026-05-05 21:35 | 47.11893 | -123.17640 | 21290 ft | 426 kts | 218° |
| 2026-05-05 21:35 | 47.09498 | -123.20220 | 21784 ft | 428 kts | 218° |
| 2026-05-05 21:35 | 47.07092 | -123.22823 | 22272 ft | 432 kts | 218° |
| 2026-05-05 21:35 | 47.04668 | -123.25448 | 22766 ft | 434 kts | 218° |
| 2026-05-05 21:36 | 47.02231 | -123.28087 | 23250 ft | 437 kts | 218° |
| 2026-05-05 21:36 | 46.99777 | -123.30741 | 23697 ft | 440 kts | 218° |
| 2026-05-05 21:36 | 46.97303 | -123.33413 | 24097 ft | 443 kts | 218° |
| 2026-05-05 21:36 | 46.94820 | -123.36088 | 24528 ft | 444 kts | 218° |
| 2026-05-05 21:37 | 46.92250 | -123.38611 | 24916 ft | 448 kts | 207° |
| 2026-05-05 21:37 | 46.89287 | -123.40068 | 25284 ft | 453 kts | 189° |
| 2026-05-05 21:37 | 46.86140 | -123.40292 | 25698 ft | 454 kts | 179° |
| 2026-05-05 21:37 | 46.82975 | -123.40186 | 26062 ft | 456 kts | 178° |
| 2026-05-05 21:38 | 46.79790 | -123.40023 | 26385 ft | 460 kts | 178° |
| 2026-05-05 21:38 | 46.76584 | -123.39852 | 26723 ft | 462 kts | 178° |
| 2026-05-05 21:38 | 46.73360 | -123.39695 | 27083 ft | 464 kts | 178° |
| 2026-05-05 21:38 | 46.70122 | -123.39558 | 27430 ft | 466 kts | 178° |
| 2026-05-05 21:39 | 46.66871 | -123.39437 | 27767 ft | 469 kts | 179° |
| 2026-05-05 21:39 | 46.63606 | -123.39328 | 28094 ft | 471 kts | 179° |
| 2026-05-05 21:39 | 46.60366 | -123.39225 | 28413 ft | 473 kts | 179° |
| 2026-05-05 21:39 | 46.57068 | -123.39124 | 28723 ft | 475 kts | 179° |
| 2026-05-05 21:40 | 46.53755 | -123.39023 | 29023 ft | 477 kts | 179° |
| 2026-05-05 21:40 | 46.50425 | -123.38921 | 29319 ft | 480 kts | 179° |
| 2026-05-05 21:40 | 46.47083 | -123.38819 | 29618 ft | 482 kts | 179° |
| 2026-05-05 21:40 | 46.43725 | -123.38715 | 29905 ft | 484 kts | 179° |
| 2026-05-05 21:41 | 46.40351 | -123.38611 | 30171 ft | 486 kts | 179° |
| 2026-05-05 21:41 | 46.36962 | -123.38506 | 30391 ft | 488 kts | 179° |
| 2026-05-05 21:41 | 46.33559 | -123.38400 | 30600 ft | 491 kts | 179° |
| 2026-05-05 21:41 | 46.30138 | -123.38294 | 30843 ft | 492 kts | 179° |
| 2026-05-05 21:42 | 46.26718 | -123.38189 | 31136 ft | 492 kts | 179° |
| 2026-05-05 21:42 | 46.23301 | -123.38083 | 31450 ft | 491 kts | 179° |
| 2026-05-05 21:42 | 46.19884 | -123.37978 | 31727 ft | 491 kts | 179° |
| 2026-05-05 21:42 | 46.16461 | -123.37872 | 31978 ft | 492 kts | 179° |
| 2026-05-05 21:43 | 46.13038 | -123.37767 | 32251 ft | 492 kts | 179° |
| 2026-05-05 21:43 | 46.09612 | -123.37662 | 32538 ft | 492 kts | 179° |
| 2026-05-05 21:43 | 46.06191 | -123.37557 | 32805 ft | 492 kts | 179° |
| 2026-05-05 21:43 | 46.02760 | -123.37452 | 33048 ft | 493 kts | 179° |
| 2026-05-05 21:44 | 45.99328 | -123.37347 | 33289 ft | 494 kts | 179° |
| 2026-05-05 21:44 | 45.95894 | -123.37242 | 33563 ft | 493 kts | 179° |
| 2026-05-05 21:44 | 45.92460 | -123.37137 | 33840 ft | 493 kts | 179° |
| 2026-05-05 21:44 | 45.89029 | -123.37033 | 34076 ft | 494 kts | 179° |
| 2026-05-05 21:45 | 45.85595 | -123.36928 | 34285 ft | 494 kts | 179° |
| 2026-05-05 21:45 | 45.82160 | -123.36824 | 34539 ft | 493 kts | 179° |
| 2026-05-05 21:45 | 45.78735 | -123.36719 | 34803 ft | 492 kts | 179° |
| 2026-05-05 21:45 | 45.75319 | -123.36616 | 35050 ft | 491 kts | 179° |
| 2026-05-05 21:46 | 45.71906 | -123.36512 | 35261 ft | 491 kts | 179° |
| 2026-05-05 21:46 | 45.68489 | -123.36409 | 35479 ft | 491 kts | 179° |
| 2026-05-05 21:46 | 45.65078 | -123.36306 | 35713 ft | 490 kts | 179° |
| 2026-05-05 21:46 | 45.61674 | -123.36203 | 35941 ft | 489 kts | 179° |
| 2026-05-05 21:47 | 45.58270 | -123.36101 | 36167 ft | 489 kts | 179° |
| 2026-05-05 21:47 | 45.54874 | -123.35998 | 36394 ft | 488 kts | 179° |
| 2026-05-05 21:47 | 45.51480 | -123.35896 | 36592 ft | 487 kts | 179° |
| 2026-05-05 21:47 | 45.48090 | -123.35795 | 36793 ft | 487 kts | 178° |
| 2026-05-05 21:48 | 45.44704 | -123.35693 | 36982 ft | 487 kts | 178° |
| 2026-05-05 21:48 | 45.41314 | -123.35591 | 37077 ft | 488 kts | 178° |
| 2026-05-05 21:48 | 45.34504 | -123.35388 | 37082 ft | 488 kts | 178° |
| 2026-05-05 21:49 | 45.27737 | -123.35186 | 37076 ft | 485 kts | 178° |
| 2026-05-05 21:49 | 45.21008 | -123.34986 | 37073 ft | 483 kts | 178° |
| 2026-05-05 21:50 | 45.14308 | -123.34787 | 37082 ft | 481 kts | 178° |
| 2026-05-05 21:50 | 45.07622 | -123.34589 | 37083 ft | 480 kts | 178° |
| 2026-05-05 21:51 | 45.00979 | -123.34392 | 37083 ft | 481 kts | 178° |
| 2026-05-05 21:51 | 44.94274 | -123.34194 | 37090 ft | 483 kts | 178° |
| 2026-05-05 21:52 | 44.84177 | -123.33897 | 37087 ft | 485 kts | 178° |
| 2026-05-05 21:53 | 44.77413 | -123.33699 | 37087 ft | 487 kts | 178° |
| 2026-05-05 21:53 | 44.70627 | -123.33501 | 37095 ft | 488 kts | 178° |
| 2026-05-05 21:54 | 44.63819 | -123.33302 | 37086 ft | 490 kts | 178° |
| 2026-05-05 21:54 | 44.57005 | -123.33104 | 37094 ft | 490 kts | 178° |
| 2026-05-05 21:55 | 44.50185 | -123.32905 | 37088 ft | 490 kts | 178° |
| 2026-05-05 21:55 | 44.43375 | -123.32652 | 37091 ft | 489 kts | 177° |
| 2026-05-05 21:56 | 44.36579 | -123.32359 | 37089 ft | 488 kts | 177° |
| 2026-05-05 21:56 | 44.29796 | -123.32077 | 37088 ft | 487 kts | 177° |
| 2026-05-05 21:57 | 44.23027 | -123.31803 | 37089 ft | 486 kts | 177° |
| 2026-05-05 21:57 | 44.16271 | -123.31531 | 37091 ft | 485 kts | 177° |
| 2026-05-05 21:58 | 44.09530 | -123.31262 | 37089 ft | 484 kts | 177° |
| 2026-05-05 21:58 | 44.02803 | -123.30995 | 37093 ft | 483 kts | 177° |
| 2026-05-05 21:59 | 43.96085 | -123.30728 | 37087 ft | 483 kts | 177° |
| 2026-05-05 21:59 | 43.89416 | -123.30464 | 37081 ft | 483 kts | 177° |
| 2026-05-05 22:00 | 43.82699 | -123.30198 | 37078 ft | 483 kts | 177° |
| 2026-05-05 22:00 | 43.75988 | -123.29934 | 37077 ft | 483 kts | 177° |
| 2026-05-05 22:01 | 43.69267 | -123.29669 | 37071 ft | 483 kts | 177° |
| 2026-05-05 22:01 | 43.62546 | -123.29405 | 37069 ft | 484 kts | 176° |
| 2026-05-05 22:02 | 43.55814 | -123.29141 | 37067 ft | 484 kts | 176° |
| 2026-05-05 22:02 | 43.49076 | -123.28878 | 37046 ft | 485 kts | 176° |
| 2026-05-05 22:03 | 43.42336 | -123.28615 | 37064 ft | 485 kts | 176° |
| 2026-05-05 22:03 | 43.35589 | -123.28352 | 37068 ft | 485 kts | 176° |
| 2026-05-05 22:04 | 43.28837 | -123.28091 | 37054 ft | 485 kts | 176° |
| 2026-05-05 22:04 | 43.22082 | -123.27829 | 37058 ft | 486 kts | 176° |
| 2026-05-05 22:05 | 43.15324 | -123.27568 | 37050 ft | 486 kts | 176° |
| 2026-05-05 22:05 | 43.08573 | -123.27308 | 37059 ft | 485 kts | 176° |
| 2026-05-05 22:06 | 43.01826 | -123.27048 | 37051 ft | 485 kts | 176° |
| 2026-05-05 22:06 | 42.95080 | -123.26789 | 37045 ft | 485 kts | 176° |
| 2026-05-05 22:07 | 42.88340 | -123.26530 | 37043 ft | 484 kts | 176° |
| 2026-05-05 22:07 | 42.81604 | -123.26273 | 37034 ft | 484 kts | 175° |
| 2026-05-05 22:08 | 42.76006 | -123.26059 | 37021 ft | 484 kts | 175° |
| 2026-05-05 22:08 | 42.69267 | -123.25803 | 37025 ft | 484 kts | 175° |
| 2026-05-05 22:09 | 42.62529 | -123.25547 | 36997 ft | 484 kts | 175° |
| 2026-05-05 22:09 | 42.55795 | -123.25291 | 37016 ft | 484 kts | 175° |
| 2026-05-05 22:10 | 42.49065 | -123.25037 | 36990 ft | 483 kts | 175° |
| 2026-05-05 22:10 | 42.42347 | -123.24788 | 36993 ft | 483 kts | 175° |
| 2026-05-05 22:11 | 42.35631 | -123.24545 | 37002 ft | 483 kts | 175° |
| 2026-05-05 22:11 | 42.28907 | -123.24302 | 37000 ft | 484 kts | 175° |
| 2026-05-05 22:12 | 42.22174 | -123.24059 | 36990 ft | 484 kts | 175° |
| 2026-05-05 22:12 | 42.15439 | -123.23816 | 37001 ft | 484 kts | 175° |
| 2026-05-05 22:13 | 42.08700 | -123.23572 | 36993 ft | 485 kts | 175° |
| 2026-05-05 22:13 | 42.01954 | -123.23330 | 37004 ft | 485 kts | 175° |
| 2026-05-05 22:14 | 41.95214 | -123.23089 | 37006 ft | 484 kts | 175° |
| 2026-05-05 22:14 | 41.88480 | -123.22847 | 36984 ft | 484 kts | 175° |
| 2026-05-05 22:15 | 41.81764 | -123.22608 | 36998 ft | 483 kts | 174° |
| 2026-05-05 22:15 | 41.75044 | -123.22367 | 36994 ft | 483 kts | 174° |
| 2026-05-05 22:16 | 41.68326 | -123.22128 | 36992 ft | 482 kts | 174° |
| 2026-05-05 22:16 | 41.61611 | -123.21890 | 36980 ft | 483 kts | 174° |
| 2026-05-05 22:17 | 41.54896 | -123.21652 | 37001 ft | 483 kts | 174° |
| 2026-05-05 22:17 | 41.48171 | -123.21413 | 37007 ft | 484 kts | 174° |
| 2026-05-05 22:18 | 41.41438 | -123.21176 | 36992 ft | 484 kts | 174° |
| 2026-05-05 22:18 | 41.34705 | -123.20939 | 36998 ft | 484 kts | 174° |
| 2026-05-05 22:19 | 41.27967 | -123.20736 | 36990 ft | 485 kts | 175° |
| 2026-05-05 22:19 | 41.21235 | -123.20577 | 37000 ft | 482 kts | 175° |
| 2026-05-05 22:20 | 41.14540 | -123.20420 | 36999 ft | 480 kts | 175° |
| 2026-05-05 22:20 | 41.07903 | -123.20257 | 37009 ft | 481 kts | 175° |
| 2026-05-05 22:21 | 41.01226 | -123.20090 | 37000 ft | 479 kts | 175° |
| 2026-05-05 22:21 | 40.94567 | -123.19923 | 37003 ft | 479 kts | 174° |
| 2026-05-05 22:22 | 40.87897 | -123.19756 | 37001 ft | 480 kts | 175° |
| 2026-05-05 22:22 | 40.81209 | -123.19589 | 37002 ft | 481 kts | 174° |
| 2026-05-05 22:23 | 40.74513 | -123.19424 | 36994 ft | 481 kts | 174° |
| 2026-05-05 22:23 | 40.67819 | -123.19258 | 36989 ft | 481 kts | 174° |
| 2026-05-05 22:24 | 40.61124 | -123.19093 | 36993 ft | 482 kts | 174° |
| 2026-05-05 22:24 | 40.54424 | -123.18928 | 36985 ft | 482 kts | 174° |
| 2026-05-05 22:25 | 40.47724 | -123.18764 | 36990 ft | 482 kts | 174° |
| 2026-05-05 22:25 | 40.41021 | -123.18599 | 36986 ft | 482 kts | 174° |
| 2026-05-05 22:26 | 40.34323 | -123.18435 | 36989 ft | 481 kts | 174° |
| 2026-05-05 22:26 | 40.27673 | -123.18273 | 36996 ft | 481 kts | 174° |
| 2026-05-05 22:27 | 40.20942 | -123.18109 | 36989 ft | 480 kts | 174° |
| 2026-05-05 22:27 | 40.14309 | -123.17947 | 36993 ft | 479 kts | 174° |
| 2026-05-05 22:28 | 40.07648 | -123.17785 | 36998 ft | 478 kts | 174° |
| 2026-05-05 22:28 | 40.00998 | -123.17624 | 36995 ft | 477 kts | 174° |
| 2026-05-05 22:29 | 39.94364 | -123.17455 | 36996 ft | 477 kts | 174° |
| 2026-05-05 22:29 | 39.87743 | -123.17163 | 37005 ft | 476 kts | 173° |
| 2026-05-05 22:30 | 39.81126 | -123.16827 | 36994 ft | 476 kts | 173° |
| 2026-05-05 22:30 | 39.74509 | -123.16506 | 36995 ft | 476 kts | 173° |
| 2026-05-05 22:31 | 39.67899 | -123.16198 | 36990 ft | 475 kts | 173° |
| 2026-05-05 22:31 | 39.61294 | -123.15893 | 37005 ft | 475 kts | 173° |
| 2026-05-05 22:32 | 39.54686 | -123.15589 | 37006 ft | 475 kts | 173° |
| 2026-05-05 22:32 | 39.48076 | -123.15285 | 37017 ft | 475 kts | 173° |
| 2026-05-05 22:33 | 39.41472 | -123.14981 | 37017 ft | 475 kts | 173° |
| 2026-05-05 22:33 | 39.34852 | -123.14677 | 37018 ft | 476 kts | 173° |
| 2026-05-05 22:34 | 39.28222 | -123.14373 | 37022 ft | 477 kts | 173° |
| 2026-05-05 22:34 | 39.24884 | -123.14219 | 36576 ft | 484 kts | 173° |
| 2026-05-05 22:34 | 39.21524 | -123.14065 | 36058 ft | 482 kts | 173° |
| 2026-05-05 22:34 | 39.18175 | -123.13914 | 35434 ft | 482 kts | 173° |
| 2026-05-05 22:35 | 39.14823 | -123.13761 | 34796 ft | 482 kts | 172° |
| 2026-05-05 22:35 | 39.11515 | -123.13290 | 34148 ft | 475 kts | 162° |
| 2026-05-05 22:35 | 39.08356 | -123.12168 | 33459 ft | 467 kts | 153° |
| 2026-05-05 22:35 | 39.05402 | -123.10550 | 32885 ft | 457 kts | 145° |
| 2026-05-05 22:36 | 39.02728 | -123.08452 | 32414 ft | 446 kts | 140° |
| 2026-05-05 22:36 | 39.00149 | -123.06287 | 31928 ft | 440 kts | 140° |
| 2026-05-05 22:36 | 38.97599 | -123.04154 | 31500 ft | 434 kts | 140° |
| 2026-05-05 22:36 | 38.95069 | -123.02063 | 31063 ft | 431 kts | 140° |
| 2026-05-05 22:37 | 38.92552 | -123.00006 | 30598 ft | 427 kts | 141° |
| 2026-05-05 22:37 | 38.90052 | -122.97975 | 30176 ft | 423 kts | 141° |
| 2026-05-05 22:37 | 38.87537 | -122.96041 | 29684 ft | 424 kts | 148° |
| 2026-05-05 22:37 | 38.84709 | -122.94873 | 29323 ft | 428 kts | 160° |
| 2026-05-05 22:38 | 38.81805 | -122.94054 | 28834 ft | 426 kts | 162° |
| 2026-05-05 22:38 | 38.78919 | -122.93273 | 28429 ft | 422 kts | 161° |
| 2026-05-05 22:38 | 38.76098 | -122.92494 | 27974 ft | 419 kts | 161° |
| 2026-05-05 22:38 | 38.73267 | -122.91685 | 27539 ft | 415 kts | 161° |
| 2026-05-05 22:39 | 38.70464 | -122.90865 | 27099 ft | 412 kts | 161° |
| 2026-05-05 22:39 | 38.67680 | -122.90041 | 26681 ft | 409 kts | 161° |
| 2026-05-05 22:39 | 38.64919 | -122.89224 | 26252 ft | 406 kts | 161° |
| 2026-05-05 22:39 | 38.62174 | -122.88413 | 25834 ft | 404 kts | 161° |
| 2026-05-05 22:40 | 38.59445 | -122.87609 | 25419 ft | 401 kts | 161° |
| 2026-05-05 22:40 | 38.56736 | -122.86811 | 25017 ft | 399 kts | 161° |
| 2026-05-05 22:40 | 38.54042 | -122.86018 | 24601 ft | 397 kts | 161° |
| 2026-05-05 22:40 | 38.51358 | -122.85227 | 24167 ft | 395 kts | 161° |
| 2026-05-05 22:41 | 38.48684 | -122.84440 | 23739 ft | 394 kts | 161° |
| 2026-05-05 22:41 | 38.46013 | -122.83654 | 23254 ft | 393 kts | 162° |
| 2026-05-05 22:41 | 38.43357 | -122.82874 | 22802 ft | 391 kts | 162° |
| 2026-05-05 22:41 | 38.40717 | -122.82099 | 22354 ft | 388 kts | 162° |
| 2026-05-05 22:42 | 38.38093 | -122.81329 | 21922 ft | 386 kts | 162° |
| 2026-05-05 22:42 | 38.35487 | -122.80565 | 21509 ft | 383 kts | 162° |
| 2026-05-05 22:42 | 38.32895 | -122.79805 | 21086 ft | 381 kts | 162° |
| 2026-05-05 22:42 | 38.30314 | -122.79049 | 20672 ft | 379 kts | 162° |
| 2026-05-05 22:43 | 38.27748 | -122.78298 | 20252 ft | 378 kts | 162° |
| 2026-05-05 22:43 | 38.25192 | -122.77550 | 19850 ft | 376 kts | 163° |
| 2026-05-05 22:43 | 38.22647 | -122.76807 | 19440 ft | 375 kts | 163° |
| 2026-05-05 22:43 | 38.20104 | -122.76066 | 18994 ft | 375 kts | 163° |
| 2026-05-05 22:44 | 38.17564 | -122.75327 | 18590 ft | 374 kts | 163° |
| 2026-05-05 22:44 | 38.15031 | -122.74591 | 18142 ft | 374 kts | 163° |
| 2026-05-05 22:44 | 38.12501 | -122.73856 | 17700 ft | 372 kts | 163° |
| 2026-05-05 22:44 | 38.09990 | -122.73128 | 17280 ft | 369 kts | 163° |
| 2026-05-05 22:45 | 38.07496 | -122.72405 | 16875 ft | 366 kts | 163° |
| 2026-05-05 22:45 | 38.05026 | -122.71689 | 16488 ft | 363 kts | 164° |
| 2026-05-05 22:45 | 38.02572 | -122.70977 | 16089 ft | 360 kts | 164° |
| 2026-05-05 22:45 | 38.00169 | -122.70281 | 15697 ft | 358 kts | 164° |
| 2026-05-05 22:46 | 37.97745 | -122.69578 | 15287 ft | 356 kts | 164° |
| 2026-05-05 22:46 | 37.95334 | -122.68881 | 14884 ft | 355 kts | 165° |
| 2026-05-05 22:46 | 37.92932 | -122.68187 | 14496 ft | 353 kts | 165° |
| 2026-05-05 22:46 | 37.90562 | -122.67430 | 14101 ft | 349 kts | 158° |
| 2026-05-05 22:47 | 37.88492 | -122.65916 | 13761 ft | 341 kts | 139° |
| 2026-05-05 22:47 | 37.86698 | -122.63991 | 13416 ft | 336 kts | 136° |
| 2026-05-05 22:47 | 37.84936 | -122.62063 | 13072 ft | 334 kts | 137° |
| 2026-05-05 22:47 | 37.83172 | -122.60160 | 12760 ft | 333 kts | 137° |
| 2026-05-05 22:48 | 37.81403 | -122.58271 | 12442 ft | 332 kts | 138° |
| 2026-05-05 22:48 | 37.79636 | -122.56396 | 12127 ft | 331 kts | 138° |
| 2026-05-05 22:48 | 37.77871 | -122.54528 | 11812 ft | 330 kts | 138° |
| 2026-05-05 22:48 | 37.76121 | -122.52678 | 11495 ft | 326 kts | 138° |
| 2026-05-05 22:49 | 37.74392 | -122.50851 | 11193 ft | 322 kts | 138° |
| 2026-05-05 22:49 | 37.72695 | -122.49056 | 11051 ft | 312 kts | 138° |
| 2026-05-05 22:49 | 37.71065 | -122.47324 | 11025 ft | 300 kts | 138° |
| 2026-05-05 22:49 | 37.69485 | -122.45642 | 11016 ft | 295 kts | 138° |
| 2026-05-05 22:50 | 37.67916 | -122.43971 | 11028 ft | 295 kts | 138° |
| 2026-05-05 22:50 | 37.66338 | -122.42290 | 11031 ft | 299 kts | 138° |
| 2026-05-05 22:50 | 37.64746 | -122.40597 | 11036 ft | 299 kts | 138° |
| 2026-05-05 22:50 | 37.63152 | -122.38906 | 11033 ft | 299 kts | 138° |
| 2026-05-05 22:51 | 37.61557 | -122.37221 | 11026 ft | 299 kts | 140° |
| 2026-05-05 22:51 | 37.59829 | -122.35752 | 11034 ft | 300 kts | 147° |
| 2026-05-05 22:51 | 37.58029 | -122.34482 | 11024 ft | 291 kts | 150° |
| 2026-05-05 22:51 | 37.56285 | -122.33348 | 11011 ft | 274 kts | 152° |
| 2026-05-05 22:52 | 37.54611 | -122.32281 | 10986 ft | 265 kts | 151° |
| 2026-05-05 22:52 | 37.52993 | -122.31245 | 10922 ft | 257 kts | 151° |
| 2026-05-05 22:52 | 37.51424 | -122.30237 | 10795 ft | 251 kts | 151° |
| 2026-05-05 22:52 | 37.50019 | -122.28972 | 10490 ft | 248 kts | 127° |
| 2026-05-05 22:53 | 37.49085 | -122.27166 | 10274 ft | 245 kts | 118° |
| 2026-05-05 22:53 | 37.48259 | -122.25292 | 10013 ft | 245 kts | 117° |
| 2026-05-05 22:53 | 37.47452 | -122.23407 | 9754 ft | 243 kts | 117° |
| 2026-05-05 22:53 | 37.46666 | -122.21553 | 9433 ft | 239 kts | 117° |
| 2026-05-05 22:54 | 37.45898 | -122.19731 | 9054 ft | 239 kts | 117° |
| 2026-05-05 22:54 | 37.45127 | -122.17892 | 8690 ft | 236 kts | 117° |
| 2026-05-05 22:54 | 37.44370 | -122.16076 | 8356 ft | 233 kts | 117° |
| 2026-05-05 22:54 | 37.43626 | -122.14273 | 8011 ft | 231 kts | 117° |
| 2026-05-05 22:55 | 37.42893 | -122.12488 | 7644 ft | 229 kts | 117° |
| 2026-05-05 22:55 | 37.42173 | -122.10721 | 7342 ft | 226 kts | 117° |
| 2026-05-05 22:55 | 37.41464 | -122.08968 | 7010 ft | 224 kts | 117° |
| 2026-05-05 22:55 | 37.40764 | -122.07230 | 6680 ft | 222 kts | 117° |
| 2026-05-05 22:56 | 37.40297 | -122.06065 | 6464 ft | 220 kts | 117° |
| 2026-05-05 22:56 | 37.39611 | -122.04350 | 6055 ft | 220 kts | 117° |
| 2026-05-05 22:56 | 37.38924 | -122.02623 | 5637 ft | 221 kts | 117° |
| 2026-05-05 22:56 | 37.38242 | -122.00887 | 5258 ft | 221 kts | 114° |
| 2026-05-05 22:57 | 37.38095 | -121.99027 | 5038 ft | 213 kts | 71° |
| 2026-05-05 22:57 | 37.38995 | -121.97558 | 5042 ft | 219 kts | 32° |
| 2026-05-05 22:57 | 37.40326 | -121.96700 | 5032 ft | 218 kts | 27° |
| 2026-05-05 22:57 | 37.41684 | -121.95950 | 5018 ft | 209 kts | 13° |
| 2026-05-05 22:58 | 37.43080 | -121.96101 | 5030 ft | 202 kts | 335° |
| 2026-05-05 22:58 | 37.44195 | -121.97140 | 5044 ft | 200 kts | 313° |
| 2026-05-05 22:58 | 37.45126 | -121.98432 | 5041 ft | 198 kts | 310° |
| 2026-05-05 22:58 | 37.45989 | -121.99767 | 5020 ft | 196 kts | 301° |
| 2026-05-05 22:59 | 37.46650 | -122.01259 | 5025 ft | 195 kts | 296° |
| 2026-05-05 22:59 | 37.47273 | -122.02773 | 5026 ft | 194 kts | 296° |
| 2026-05-05 22:59 | 37.47903 | -122.04277 | 5023 ft | 194 kts | 297° |
| 2026-05-05 22:59 | 37.48546 | -122.05770 | 5015 ft | 194 kts | 297° |
| 2026-05-05 23:00 | 37.49819 | -122.08776 | 5023 ft | 195 kts | 296° |
| 2026-05-05 23:00 | 37.50456 | -122.10294 | 5034 ft | 197 kts | 296° |
| 2026-05-05 23:00 | 37.51101 | -122.11826 | 5031 ft | 199 kts | 296° |
| 2026-05-05 23:01 | 37.51748 | -122.13367 | 5036 ft | 199 kts | 296° |
| 2026-05-05 23:01 | 37.52398 | -122.14913 | 5003 ft | 201 kts | 296° |
| 2026-05-05 23:01 | 37.53069 | -122.16502 | 4655 ft | 207 kts | 297° |
| 2026-05-05 23:01 | 37.53759 | -122.18073 | 4243 ft | 204 kts | 298° |
| 2026-05-05 23:02 | 37.54472 | -122.19644 | 3741 ft | 206 kts | 297° |
| 2026-05-05 23:02 | 37.55117 | -122.21247 | 3331 ft | 204 kts | 294° |
| 2026-05-05 23:02 | 37.55719 | -122.22859 | 2895 ft | 202 kts | 296° |
| 2026-05-05 23:02 | 37.56387 | -122.24413 | 2458 ft | 200 kts | 297° |
| 2026-05-05 23:03 | 37.57033 | -122.25959 | 2019 ft | 199 kts | 296° |
| 2026-05-05 23:03 | 37.57679 | -122.27513 | 1535 ft | 198 kts | 296° |
| 2026-05-05 23:03 | 37.58309 | -122.28995 | 1273 ft | 185 kts | 297° |
| 2026-05-05 23:03 | 37.58897 | -122.30385 | 986 ft | 176 kts | 296° |
| 2026-05-05 23:04 | 37.59456 | -122.31725 | 693 ft | 169 kts | 295° |
| 2026-05-05 23:04 | 37.59978 | -122.32982 | 509 ft | 155 kts | 296° |
| 2026-05-05 23:04 | 37.60447 | -122.34110 | 350 ft | 139 kts | 297° |
| 2026-05-05 23:04 | 37.60890 | -122.35172 | 211 ft | 136 kts | 297° |
| 2026-05-05 23:05 | 37.61339 | -122.36235 | 35 ft | 136 kts | 297° |
| 2026-05-05 23:05 | 37.61742 | -122.37199 | 22 ft | 108 kts | 298° |
| 2026-05-05 23:05 | 37.62025 | -122.37874 | 21 ft | 66 kts | 298° |
| 2026-05-05 23:05 | 37.62135 | -122.38133 | 22 ft | 13 kts | 298° |
| 2026-05-05 23:06 | 37.62135 | -122.38227 | 23 ft | 12 kts | 218° |
| 2026-05-05 23:06 | 37.62060 | -122.38242 | 21 ft | 12 kts | 142° |
| 2026-05-05 23:06 | 37.62012 | -122.38138 | 22 ft | 16 kts | 117° |
| 2026-05-05 23:06 | 37.61956 | -122.38007 | 22 ft | 17 kts | 122° |
| 2026-05-05 23:07 | 37.61873 | -122.37908 | 21 ft | 16 kts | 150° |
| 2026-05-05 23:07 | 37.61761 | -122.37863 | 23 ft | 19 kts | 172° |
| 2026-05-05 23:07 | 37.61620 | -122.37901 | 21 ft | 24 kts | 207° |
| 2026-05-05 23:07 | 37.61468 | -122.38002 | 21 ft | 25 kts | 207° |
| 2026-05-05 23:08 | 37.61319 | -122.38101 | 21 ft | 23 kts | 208° |
| 2026-05-05 23:08 | 37.61179 | -122.38193 | 22 ft | 22 kts | 207° |
| 2026-05-05 23:08 | 37.61096 | -122.38272 | 21 ft | 11 kts | 261° |
| 2026-05-05 23:08 | 37.61153 | -122.38302 | 21 ft | 11 kts | 18° |
| 2026-05-05 23:09 | 37.61228 | -122.38306 | 21 ft | 11 kts | 341° |
| 2026-05-05 23:09 | 37.61286 | -122.38319 | 21 ft | 6 kts | 318° |
| 2026-05-05 23:09 | 37.61303 | -122.38354 | 21 ft | 3 kts | 296° |
| 2026-05-05 23:09 | 37.61306 | -122.38362 | 21 ft | 0 kts | 296° |